Time;durP1;ratioP1;P1;durP2;ratioP2;P2;SDS_P1;SDS_P2;PMS_P1;PMS_P2;Temp;Humidity;BMP_temperature;BMP_pressure;BME280_temperature;BME280_humidity;BME280_pressure;Samples;Min_cycle;Max_cycle;Signal;HPM_P1;HPM_P2
2023/06/13 00:00:14;;;;;;;21.23;13.18;;;;;;;;;;4955002;28;20332;-64
2023/06/13 00:02:41;;;;;;;21.13;13.07;;;;;;;;;;4964808;28;20050;-65
2023/06/13 00:05:10;;;;;;;17.88;12.55;;;;;;;;;;4964923;28;20517;-64
2023/06/13 00:07:37;;;;;;;21.83;13.13;;;;;;;;;;4921797;28;20646;-65
2023/06/13 00:10:07;;;;;;;19.23;12.73;;;;;;;;;;4936475;28;20124;-64
2023/06/13 00:12:38;;;;;;;26.23;13.75;;;;;;;;;;4949517;28;20071;-64
2023/06/13 00:15:06;;;;;;;16.85;12.73;;;;;;;;;;4986354;28;20034;-64
2023/06/13 00:17:33;;;;;;;44.00;15.60;;;;;;;;;;5005185;28;20109;-64
2023/06/13 00:20:00;;;;;;;21.58;13.00;;;;;;;;;;4989403;28;20042;-65
2023/06/13 00:22:28;;;;;;;18.55;13.02;;;;;;;;;;4995987;28;20039;-64
2023/06/13 00:24:55;;;;;;;21.65;13.10;;;;;;;;;;4976470;28;20176;-64
2023/06/13 00:27:22;;;;;;;18.08;12.38;;;;;;;;;;4994168;28;20038;-65
2023/06/13 00:29:48;;;;;;;21.20;12.77;;;;;;;;;;4985312;28;20038;-67
2023/06/13 00:32:17;;;;;;;16.45;12.15;;;;;;;;;;4981467;28;20451;-65
2023/06/13 00:34:46;;;;;;;23.15;12.98;;;;;;;;;;4981945;28;20053;-64
2023/06/13 00:37:14;;;;;;;20.63;12.93;;;;;;;;;;4984503;28;20061;-63
2023/06/13 00:39:41;;;;;;;21.15;12.52;;;;;;;;;;4982999;28;20058;-63
2023/06/13 00:42:08;;;;;;;19.90;13.00;;;;;;;;;;4981748;28;20050;-64
2023/06/13 00:44:34;;;;;;;17.38;11.20;;;;;;;;;;4980099;28;20061;-64
2023/06/13 00:47:02;;;;;;;21.88;12.50;;;;;;;;;;4982040;28;20651;-65
2023/06/13 00:49:29;;;;;;;17.45;11.52;;;;;;;;;;4980071;28;20030;-64
2023/06/13 00:52:00;;;;;;;16.35;11.27;;;;;;;;;;4980279;28;20058;-64
2023/06/13 00:54:26;;;;;;;18.23;12.02;;;;;;;;;;4982367;28;20048;-65
2023/06/13 00:56:53;;;;;;;18.13;12.30;;;;;;;;;;4982334;28;20046;-65
2023/06/13 00:59:20;;;;;;;20.00;11.10;;;;;;;;;;4983727;28;20061;-65
2023/06/13 01:01:47;;;;;;;15.98;11.05;;;;;;;;;;4980464;28;20054;-65
2023/06/13 01:04:15;;;;;;;19.38;11.55;;;;;;;;;;4980205;28;20049;-64
2023/06/13 01:06:44;;;;;;;19.30;10.98;;;;;;;;;;4979402;28;20035;-65
2023/06/13 01:09:11;;;;;;;16.27;11.18;;;;;;;;;;4980093;28;20103;-64
2023/06/13 01:11:48;;;;;;;18.08;12.23;;;;;;;;;;4982273;28;20049;-65
2023/06/13 01:14:15;;;;;;;19.75;11.63;;;;;;;;;;4978833;28;20041;-64
2023/06/13 01:16:47;;;;;;;17.67;11.15;;;;;;;;;;4978110;28;20386;-64
2023/06/13 01:19:24;;;;;;;18.17;10.93;;;;;;;;;;4980345;28;20038;-64
2023/06/13 01:21:51;;;;;;;15.63;10.90;;;;;;;;;;4979988;28;20878;-63
2023/06/13 01:24:20;;;;;;;16.48;10.38;;;;;;;;;;4979021;28;20040;-65
2023/06/13 01:26:54;;;;;;;19.23;10.75;;;;;;;;;;4976115;28;20047;-65
2023/06/13 01:29:22;;;;;;;18.08;10.90;;;;;;;;;;4976663;28;20042;-65
2023/06/13 01:31:51;;;;;;;18.30;10.68;;;;;;;;;;4977378;28;20042;-66
2023/06/13 01:34:18;;;;;;;18.95;10.60;;;;;;;;;;4978897;28;20550;-66
2023/06/13 01:37:04;;;;;;;14.98;9.75;;;;;;;;;;4991567;28;20042;-64
2023/06/13 01:39:33;;;;;;;13.07;9.23;;;;;;;;;;5008178;28;20038;-66
2023/06/13 01:42:00;;;;;;;16.50;8.90;;;;;;;;;;4991889;28;20034;-65
2023/06/13 01:44:28;;;;;;;12.48;8.60;;;;;;;;;;4988455;28;20053;-64
2023/06/13 01:47:10;;;;;;;15.13;9.55;;;;;;;;;;4989191;28;20045;-65
2023/06/13 01:49:39;;;;;;;11.73;7.93;;;;;;;;;;4990238;28;20041;-64
2023/06/13 01:52:22;;;;;;;12.30;8.35;;;;;;;;;;4998698;28;20038;-64
2023/06/13 01:54:48;;;;;;;;;;;;;;;;;;4991963;28;20069;-63
2023/06/13 01:57:16;;;;;;;11.18;7.43;;;;;;;;;;4996516;28;19928;-62
2023/06/13 01:59:44;;;;;;;12.60;7.90;;;;;;;;;;4997845;28;20125;-64
2023/06/13 02:02:12;;;;;;;12.80;8.18;;;;;;;;;;5020158;28;20033;-63
2023/06/13 02:04:43;;;;;;;13.98;8.25;;;;;;;;;;5002327;28;20050;-63
2023/06/13 02:07:10;;;;;;;13.50;8.57;;;;;;;;;;5019387;28;20038;-65
2023/06/13 02:09:40;;;;;;;12.90;7.88;;;;;;;;;;4978085;28;20039;-64
2023/06/13 02:12:07;;;;;;;11.98;7.00;;;;;;;;;;5008004;28;20042;-63
2023/06/13 02:14:33;;;;;;;13.38;7.70;;;;;;;;;;4977628;28;20042;-63
2023/06/13 02:17:00;;;;;;;14.15;7.47;;;;;;;;;;4978975;28;20046;-64
2023/06/13 02:19:27;;;;;;;11.90;7.85;;;;;;;;;;4977163;28;20046;-64
2023/06/13 02:21:54;;;;;;;12.18;7.60;;;;;;;;;;4978494;28;20046;-62
2023/06/13 02:24:21;;;;;;;11.75;7.60;;;;;;;;;;4978348;28;20510;-65
2023/06/13 02:26:48;;;;;;;12.65;8.00;;;;;;;;;;4984295;28;20066;-65
2023/06/13 02:29:16;;;;;;;16.20;8.00;;;;;;;;;;4978477;28;20461;-65
2023/06/13 02:31:43;;;;;;;12.15;7.70;;;;;;;;;;4978603;28;20330;-65
2023/06/13 02:34:09;;;;;;;13.90;7.88;;;;;;;;;;4979185;28;20121;-66
2023/06/13 02:36:36;;;;;;;16.20;8.73;;;;;;;;;;4976711;28;20050;-63
2023/06/13 02:39:03;;;;;;;15.05;8.65;;;;;;;;;;4978683;28;20068;-64
2023/06/13 02:41:30;;;;;;;12.75;8.05;;;;;;;;;;4985464;28;20089;-62
2023/06/13 02:43:56;;;;;;;13.57;7.45;;;;;;;;;;4989601;28;20499;-64
2023/06/13 02:46:23;;;;;;;14.73;8.88;;;;;;;;;;4990012;28;20081;-63
2023/06/13 02:48:50;;;;;;;13.27;8.45;;;;;;;;;;4996269;28;20118;-62
2023/06/13 02:51:16;;;;;;;16.27;8.07;;;;;;;;;;5001203;28;20529;-60
2023/06/13 02:53:44;;;;;;;14.93;8.50;;;;;;;;;;4993431;28;20038;-63
2023/06/13 02:56:11;;;;;;;16.35;8.63;;;;;;;;;;4992770;28;20045;-62
2023/06/13 02:58:38;;;;;;;12.05;7.28;;;;;;;;;;4992393;28;20035;-62
2023/06/13 03:01:05;;;;;;;11.65;7.70;;;;;;;;;;4997474;28;20111;-62
2023/06/13 03:03:34;;;;;;;13.85;7.45;;;;;;;;;;4995950;28;20053;-60
2023/06/13 03:06:01;;;;;;;13.70;7.75;;;;;;;;;;4996592;28;20038;-63
2023/06/13 03:08:28;;;;;;;12.77;7.40;;;;;;;;;;4981825;28;20489;-63
2023/06/13 03:11:14;;;;;;;11.73;7.25;;;;;;;;;;4997626;28;20049;-67
2023/06/13 03:13:41;;;;;;;14.40;8.60;;;;;;;;;;4986266;28;20083;-65
2023/06/13 03:16:08;;;;;;;14.40;7.43;;;;;;;;;;4976461;28;20508;-64
2023/06/13 03:18:36;;;;;;;14.10;7.85;;;;;;;;;;4969606;28;20042;-63
2023/06/13 03:21:03;;;;;;;10.98;6.75;;;;;;;;;;4969245;28;20189;-64
2023/06/13 03:23:30;;;;;;;11.77;7.25;;;;;;;;;;4972012;28;20038;-63
2023/06/13 03:25:57;;;;;;;12.25;7.30;;;;;;;;;;4971453;28;20042;-64
2023/06/13 03:28:24;;;;;;;11.77;7.05;;;;;;;;;;4970704;28;20035;-60
2023/06/13 03:30:51;;;;;;;15.20;7.88;;;;;;;;;;4969983;28;20984;-61
2023/06/13 03:33:18;;;;;;;11.90;7.75;;;;;;;;;;4982329;28;20580;-62
2023/06/13 03:35:44;;;;;;;13.77;7.80;;;;;;;;;;4966904;28;20049;-61
2023/06/13 03:38:12;;;;;;;15.50;7.28;;;;;;;;;;4965174;28;20050;-62
2023/06/13 03:40:39;;;;;;;14.23;7.68;;;;;;;;;;4982476;28;20133;-63
2023/06/13 03:43:06;;;;;;;14.18;7.35;;;;;;;;;;4981039;28;20138;-63
2023/06/13 03:45:32;;;;;;;13.82;7.45;;;;;;;;;;4981166;28;22848;-63
2023/06/13 03:47:59;;;;;;;13.13;7.47;;;;;;;;;;4966022;28;20790;-63
2023/06/13 03:50:26;;;;;;;13.27;7.22;;;;;;;;;;4967004;28;20054;-64
2023/06/13 03:52:52;;;;;;;11.88;7.25;;;;;;;;;;4969872;28;20038;-61
2023/06/13 03:55:19;;;;;;;13.25;7.65;;;;;;;;;;4970553;28;20136;-64
2023/06/13 03:57:46;;;;;;;14.82;7.70;;;;;;;;;;4968986;28;20082;-63
2023/06/13 04:00:12;;;;;;;16.42;7.43;;;;;;;;;;4971135;28;20050;-63
2023/06/13 04:02:40;;;;;;;15.75;7.55;;;;;;;;;;4968106;28;20410;-64
2023/06/13 04:05:08;;;;;;;13.63;7.07;;;;;;;;;;4969419;28;20070;-64
2023/06/13 04:07:38;;;;;;;15.40;7.32;;;;;;;;;;4967302;28;20061;-63
2023/06/13 04:10:06;;;;;;;28.35;8.15;;;;;;;;;;4968704;28;20069;-64
2023/06/13 04:12:36;;;;;;;13.90;7.05;;;;;;;;;;4969869;28;20433;-63
2023/06/13 04:15:04;;;;;;;13.98;7.13;;;;;;;;;;4968479;28;20644;-63
2023/06/13 04:17:32;;;;;;;16.17;8.13;;;;;;;;;;4969631;28;20188;-62
2023/06/13 04:19:58;;;;;;;13.35;7.80;;;;;;;;;;4969328;28;20046;-61
2023/06/13 04:22:25;;;;;;;11.98;7.65;;;;;;;;;;4968962;28;20133;-62
2023/06/13 04:24:52;;;;;;;13.50;7.22;;;;;;;;;;4969510;28;20119;-62
2023/06/13 04:27:28;;;;;;;13.43;7.68;;;;;;;;;;4968916;28;20053;-61
2023/06/13 04:29:59;;;;;;;14.30;7.57;;;;;;;;;;4967499;28;20166;-62
2023/06/13 04:32:27;;;;;;;27.10;8.90;;;;;;;;;;4969223;28;20094;-63
2023/06/13 04:34:55;;;;;;;14.07;7.18;;;;;;;;;;4967973;28;20050;-62
2023/06/13 04:37:25;;;;;;;15.52;8.10;;;;;;;;;;4967655;28;20469;-63
2023/06/13 04:39:55;;;;;;;14.20;7.72;;;;;;;;;;4967714;28;20043;-62
2023/06/13 04:42:29;;;;;;;15.25;8.25;;;;;;;;;;4969088;28;20129;-62
2023/06/13 04:44:56;;;;;;;16.33;7.90;;;;;;;;;;4967601;28;20741;-61
2023/06/13 04:47:33;;;;;;;13.93;8.38;;;;;;;;;;4968008;28;20042;-62
2023/06/13 04:50:00;;;;;;;18.10;8.27;;;;;;;;;;4968964;28;20049;-63
2023/06/13 04:52:27;;;;;;;21.50;8.85;;;;;;;;;;4969894;28;20049;-62
2023/06/13 04:54:54;;;;;;;14.35;8.32;;;;;;;;;;4974357;28;20109;-64
2023/06/13 04:57:21;;;;;;;15.00;8.65;;;;;;;;;;4971441;28;20083;-64
2023/06/13 04:59:48;;;;;;;19.38;8.93;;;;;;;;;;4972257;28;20050;-62
2023/06/13 05:02:15;;;;;;;19.88;9.60;;;;;;;;;;4954753;28;20847;-60
2023/06/13 05:04:42;;;;;;;16.42;9.32;;;;;;;;;;4968129;28;20054;-63
2023/06/13 05:07:08;;;;;;;17.48;9.77;;;;;;;;;;4970938;28;20034;-63
2023/06/13 05:09:35;;;;;;;15.57;9.63;;;;;;;;;;4969054;28;20046;-63
2023/06/13 05:12:02;;;;;;;18.58;9.25;;;;;;;;;;4969564;28;20046;-63
2023/06/13 05:14:29;;;;;;;15.18;9.32;;;;;;;;;;4967917;28;20053;-66
2023/06/13 05:16:55;;;;;;;21.83;10.00;;;;;;;;;;4969510;28;20116;-63
2023/06/13 05:19:23;;;;;;;18.60;9.90;;;;;;;;;;4959241;28;20088;-64
2023/06/13 05:21:50;;;;;;;16.42;9.48;;;;;;;;;;4971279;28;20050;-62
2023/06/13 05:24:18;;;;;;;18.10;10.43;;;;;;;;;;4967456;28;20046;-61
2023/06/13 05:26:45;;;;;;;18.27;10.40;;;;;;;;;;4969047;28;20090;-61
2023/06/13 05:29:11;;;;;;;20.52;10.40;;;;;;;;;;4970463;28;20070;-62
2023/06/13 05:31:38;;;;;;;16.38;10.90;;;;;;;;;;4970995;28;20137;-62
2023/06/13 05:34:05;;;;;;;19.52;10.18;;;;;;;;;;4972741;28;20498;-62
2023/06/13 05:36:31;;;;;;;18.58;10.95;;;;;;;;;;4971779;28;20078;-62
2023/06/13 05:39:00;;;;;;;21.23;10.80;;;;;;;;;;4973232;28;20689;-64
2023/06/13 05:41:26;;;;;;;24.58;10.60;;;;;;;;;;4971247;28;20042;-60
2023/06/13 05:43:53;;;;;;;21.13;10.80;;;;;;;;;;4971667;28;20446;-60
2023/06/13 05:46:20;;;;;;;19.33;11.02;;;;;;;;;;4970070;28;20054;-63
2023/06/13 05:48:46;;;;;;;17.98;10.38;;;;;;;;;;4970968;28;20046;-61
2023/06/13 05:51:13;;;;;;;16.60;11.00;;;;;;;;;;4971977;28;20455;-63
2023/06/13 05:53:39;;;;;;;18.38;11.02;;;;;;;;;;4977019;28;20052;-61
2023/06/13 05:56:06;;;;;;;23.73;11.23;;;;;;;;;;4978772;28;20038;-61
2023/06/13 05:58:33;;;;;;;18.95;11.30;;;;;;;;;;4978606;28;20109;-61
2023/06/13 06:01:01;;;;;;;20.35;11.82;;;;;;;;;;4979266;28;20035;-62
2023/06/13 06:03:29;;;;;;;18.92;11.68;;;;;;;;;;4978767;28;20047;-61
2023/06/13 06:05:55;;;;;;;18.45;11.10;;;;;;;;;;4978299;28;20077;-62
2023/06/13 06:08:22;;;;;;;21.85;12.82;;;;;;;;;;4980646;28;20166;-61
2023/06/13 06:10:49;;;;;;;23.52;12.35;;;;;;;;;;4980041;28;20046;-61
2023/06/13 06:13:16;;;;;;;21.30;11.43;;;;;;;;;;4977942;28;20168;-64
2023/06/13 06:15:42;;;;;;;21.35;11.55;;;;;;;;;;4981020;28;20078;-62
2023/06/13 06:18:09;;;;;;;23.90;11.68;;;;;;;;;;4979666;28;20038;-61
2023/06/13 06:20:35;;;;;;;22.10;11.85;;;;;;;;;;4977145;28;20153;-62
2023/06/13 06:23:02;;;;;;;23.60;12.60;;;;;;;;;;4978213;28;20060;-63
2023/06/13 06:25:29;;;;;;;25.65;12.23;;;;;;;;;;4976656;28;20061;-60
2023/06/13 06:27:56;;;;;;;27.13;13.27;;;;;;;;;;4974335;28;20042;-63
2023/06/13 06:30:23;;;;;;;24.80;12.90;;;;;;;;;;4976780;28;20050;-66
2023/06/13 06:32:50;;;;;;;20.95;12.27;;;;;;;;;;4977931;28;20052;-62
2023/06/13 06:35:19;;;;;;;21.58;12.02;;;;;;;;;;4975786;28;20125;-61
2023/06/13 06:37:46;;;;;;;22.92;12.20;;;;;;;;;;4976744;28;20050;-62
2023/06/13 06:40:13;;;;;;;26.65;12.63;;;;;;;;;;4976459;28;20041;-61
2023/06/13 06:42:40;;;;;;;25.55;12.65;;;;;;;;;;4975681;28;20081;-61
2023/06/13 06:45:09;;;;;;;20.70;12.93;;;;;;;;;;4975195;28;20055;-62
2023/06/13 06:47:36;;;;;;;22.42;13.10;;;;;;;;;;4975929;28;20042;-62
2023/06/13 06:50:03;;;;;;;20.45;12.32;;;;;;;;;;4977237;28;20046;-59
2023/06/13 06:52:29;;;;;;;22.63;12.32;;;;;;;;;;4975410;28;20379;-60
2023/06/13 06:54:56;;;;;;;18.05;11.02;;;;;;;;;;4977300;28;20043;-60
2023/06/13 06:57:22;;;;;;;22.67;12.98;;;;;;;;;;4975796;28;20046;-60
2023/06/13 06:59:49;;;;;;;18.05;11.30;;;;;;;;;;4976023;28;20051;-62
2023/06/13 07:02:16;;;;;;;22.70;12.23;;;;;;;;;;4977378;28;20101;-63
2023/06/13 07:04:42;;;;;;;20.38;11.73;;;;;;;;;;4974260;28;20562;-62
2023/06/13 07:07:11;;;;;;;21.05;12.27;;;;;;;;;;4977486;28;20130;-62
2023/06/13 07:09:37;;;;;;;24.60;11.82;;;;;;;;;;4974612;28;20043;-64
2023/06/13 07:12:05;;;;;;;21.08;11.85;;;;;;;;;;4976232;28;22346;-61
2023/06/13 07:14:31;;;;;;;20.52;12.23;;;;;;;;;;4977821;28;20050;-62
2023/06/13 07:16:58;;;;;;;19.63;12.27;;;;;;;;;;4977726;28;20373;-62
2023/06/13 07:19:25;;;;;;;23.30;12.30;;;;;;;;;;4975181;28;20880;-60
2023/06/13 07:21:51;;;;;;;26.15;13.80;;;;;;;;;;4974344;28;20066;-58
2023/06/13 07:24:18;;;;;;;20.90;12.50;;;;;;;;;;4975899;28;20134;-60
2023/06/13 07:26:45;;;;;;;18.55;12.32;;;;;;;;;;4956308;28;20039;-61
2023/06/13 07:29:12;;;;;;;21.50;11.80;;;;;;;;;;4975948;28;20122;-61
2023/06/13 07:31:38;;;;;;;20.92;12.68;;;;;;;;;;4975168;28;20038;-61
2023/06/13 07:34:05;;;;;;;24.23;12.02;;;;;;;;;;4975997;28;20141;-61
2023/06/13 07:36:32;;;;;;;21.70;12.80;;;;;;;;;;4974702;28;20073;-61
2023/06/13 07:38:58;;;;;;;22.98;11.93;;;;;;;;;;4975249;28;20540;-59
2023/06/13 07:41:25;;;;;;;24.83;12.70;;;;;;;;;;4975584;28;20038;-60
2023/06/13 07:43:52;;;;;;;21.70;11.43;;;;;;;;;;4974817;28;20050;-59
2023/06/13 07:46:18;;;;;;;21.50;11.18;;;;;;;;;;4975452;28;20074;-60
2023/06/13 07:48:45;;;;;;;18.70;11.35;;;;;;;;;;4956430;28;20046;-59
2023/06/13 07:51:13;;;;;;;19.40;10.88;;;;;;;;;;4976323;28;20073;-62
2023/06/13 07:53:40;;;;;;;19.30;10.32;;;;;;;;;;4975288;28;20034;-62
2023/06/13 07:56:07;;;;;;;18.85;10.10;;;;;;;;;;4976342;28;20054;-61
2023/06/13 07:58:34;;;;;;;18.52;10.55;;;;;;;;;;4974448;28;20073;-61
2023/06/13 08:01:00;;;;;;;18.42;10.00;;;;;;;;;;4974562;28;20088;-61
2023/06/13 08:03:27;;;;;;;18.00;10.73;;;;;;;;;;4974828;28;20064;-60
2023/06/13 08:05:54;;;;;;;23.48;10.63;;;;;;;;;;4974019;28;20510;-60
2023/06/13 08:08:20;;;;;;;24.00;11.10;;;;;;;;;;4974714;28;20542;-62
2023/06/13 08:10:47;;;;;;;22.15;10.25;;;;;;;;;;4977361;28;20081;-62
2023/06/13 08:13:14;;;;;;;17.58;10.07;;;;;;;;;;4975123;28;20065;-61
2023/06/13 08:15:40;;;;;;;19.17;9.93;;;;;;;;;;4975257;28;20062;-60
2023/06/13 08:18:07;;;;;;;17.95;10.15;;;;;;;;;;4976046;28;20046;-61
2023/06/13 08:20:35;;;;;;;16.48;10.02;;;;;;;;;;4976983;28;20039;-61
2023/06/13 08:23:01;;;;;;;20.67;10.27;;;;;;;;;;4976318;28;20076;-61
2023/06/13 08:25:28;;;;;;;18.17;9.65;;;;;;;;;;4973378;28;20290;-63
2023/06/13 08:27:55;;;;;;;15.25;9.98;;;;;;;;;;4974303;28;20038;-62
2023/06/13 08:30:22;;;;;;;19.58;10.85;;;;;;;;;;4975475;28;20041;-60
2023/06/13 08:32:52;;;;;;;17.65;10.45;;;;;;;;;;4975522;28;20043;-62
2023/06/13 08:35:19;;;;;;;17.58;10.27;;;;;;;;;;4976964;28;20065;-61
2023/06/13 08:37:46;;;;;;;17.48;10.05;;;;;;;;;;4957216;28;20054;-62
2023/06/13 08:40:12;;;;;;;17.13;10.35;;;;;;;;;;4975601;28;20061;-62
2023/06/13 08:42:40;;;;;;;21.33;10.50;;;;;;;;;;4974239;28;20141;-61
2023/06/13 08:45:08;;;;;;;18.15;9.88;;;;;;;;;;4976057;28;20133;-61
2023/06/13 08:47:35;;;;;;;17.05;10.25;;;;;;;;;;4973853;28;20102;-62
2023/06/13 08:50:02;;;;;;;17.60;9.48;;;;;;;;;;4973730;28;20129;-61
2023/06/13 08:52:38;;;;;;;16.00;9.45;;;;;;;;;;4974576;28;20510;-61
2023/06/13 08:55:07;;;;;;;15.70;9.93;;;;;;;;;;4974944;28;20125;-62
2023/06/13 08:57:36;;;;;;;17.52;9.60;;;;;;;;;;4973830;28;20554;-61
2023/06/13 09:00:06;;;;;;;18.02;10.25;;;;;;;;;;4974648;28;20561;-60
2023/06/13 09:02:34;;;;;;;18.42;10.15;;;;;;;;;;4973797;28;20430;-61
2023/06/13 09:05:03;;;;;;;17.02;9.02;;;;;;;;;;4971495;28;20034;-60
2023/06/13 09:07:30;;;;;;;20.20;10.63;;;;;;;;;;4963086;28;20030;-60
2023/06/13 09:09:58;;;;;;;17.23;10.60;;;;;;;;;;4975624;28;20050;-61
2023/06/13 09:12:26;;;;;;;17.83;10.45;;;;;;;;;;4976926;28;20116;-62
2023/06/13 09:14:53;;;;;;;20.50;10.30;;;;;;;;;;4977447;28;20097;-60
2023/06/13 09:17:20;;;;;;;17.95;10.60;;;;;;;;;;4974917;28;20053;-64
2023/06/13 09:19:47;;;;;;;17.63;10.02;;;;;;;;;;4976427;28;20177;-59
2023/06/13 09:22:15;;;;;;;18.50;9.93;;;;;;;;;;4975822;28;20070;-59
2023/06/13 09:24:42;;;;;;;17.38;9.80;;;;;;;;;;4973952;28;20517;-60
2023/06/13 09:27:09;;;;;;;21.05;10.30;;;;;;;;;;4977996;28;20050;-61
2023/06/13 09:29:36;;;;;;;21.67;10.95;;;;;;;;;;4975026;28;20042;-62
2023/06/13 09:32:05;;;;;;;21.73;10.38;;;;;;;;;;4976851;28;20081;-61
2023/06/13 09:34:32;;;;;;;16.13;9.82;;;;;;;;;;4974572;28;20373;-61
2023/06/13 09:36:59;;;;;;;17.98;10.25;;;;;;;;;;4975519;28;20045;-62
2023/06/13 09:39:28;;;;;;;19.77;10.88;;;;;;;;;;4974983;28;20859;-59
2023/06/13 09:41:58;;;;;;;20.58;10.90;;;;;;;;;;4974289;28;21082;-61
2023/06/13 09:44:25;;;;;;;19.40;10.75;;;;;;;;;;4973913;28;20043;-61
2023/06/13 09:46:55;;;;;;;22.42;10.82;;;;;;;;;;4975431;28;20050;-62
2023/06/13 09:49:23;;;;;;;18.75;10.57;;;;;;;;;;4973778;28;20031;-61
2023/06/13 09:51:52;;;;;;;22.70;10.48;;;;;;;;;;4974451;28;20774;-61
2023/06/13 09:54:19;;;;;;;23.52;10.88;;;;;;;;;;4971917;28;20042;-61
2023/06/13 09:56:45;;;;;;;21.52;10.43;;;;;;;;;;4973645;28;20576;-62
2023/06/13 09:59:20;;;;;;;21.92;10.50;;;;;;;;;;4973971;28;20130;-61
2023/06/13 10:01:48;;;;;;;19.35;11.20;;;;;;;;;;4973553;28;20081;-59
2023/06/13 10:04:15;;;;;;;20.35;11.40;;;;;;;;;;4972500;28;20039;-61
2023/06/13 10:06:42;;;;;;;21.73;11.65;;;;;;;;;;4973353;28;20057;-59
2023/06/13 10:09:11;;;;;;;34.10;11.63;;;;;;;;;;4973995;28;20047;-60
2023/06/13 10:11:39;;;;;;;34.08;12.25;;;;;;;;;;4973845;28;20495;-59
2023/06/13 10:14:10;;;;;;;30.33;12.32;;;;;;;;;;4975658;28;20155;-61
2023/06/13 10:17:00;;;;;;;20.73;11.10;;;;;;;;;;4977066;28;20042;-59
2023/06/13 10:19:27;;;;;;;31.67;11.82;;;;;;;;;;4975077;28;20192;-61
2023/06/13 10:21:54;;;;;;;22.45;11.57;;;;;;;;;;4978305;28;20573;-61
2023/06/13 10:24:21;;;;;;;26.42;11.63;;;;;;;;;;4972566;28;20136;-61
2023/06/13 10:26:49;;;;;;;24.85;11.20;;;;;;;;;;4976681;28;21828;-58
2023/06/13 10:29:31;;;;;;;19.05;10.98;;;;;;;;;;4978850;28;20041;-59
2023/06/13 10:32:08;;;;;;;19.48;11.35;;;;;;;;;;4976706;28;20042;-61
2023/06/13 10:34:46;;;;;;;19.05;11.55;;;;;;;;;;4975965;28;20823;-59
2023/06/13 10:37:31;;;;;;;22.75;11.48;;;;;;;;;;4977311;28;20043;-59
2023/06/13 10:40:16;;;;;;;22.33;11.40;;;;;;;;;;4991503;28;20042;-59
2023/06/13 10:43:09;;;;;;;18.05;11.50;;;;;;;;;;4977408;28;20078;-60
2023/06/13 10:45:36;;;;;;;26.05;11.95;;;;;;;;;;4945012;28;20046;-60
2023/06/13 10:48:07;;;;;;;20.60;11.52;;;;;;;;;;4978213;28;20054;-59
2023/06/13 10:50:38;;;;;;;27.58;11.20;;;;;;;;;;4976710;28;20576;-59
2023/06/13 10:53:04;;;;;;;21.98;11.85;;;;;;;;;;4977049;28;20065;-61
2023/06/13 10:55:32;;;;;;;28.65;12.13;;;;;;;;;;4975953;28;20034;-61
2023/06/13 10:58:02;;;;;;;35.13;12.98;;;;;;;;;;4978043;28;20050;-61
2023/06/13 11:00:34;;;;;;;27.80;11.77;;;;;;;;;;4975711;28;20049;-59
2023/06/13 11:03:04;;;;;;;25.47;11.70;;;;;;;;;;4977230;28;20038;-62
2023/06/13 11:05:33;;;;;;;32.97;12.82;;;;;;;;;;4976573;28;20038;-59
2023/06/13 11:08:00;;;;;;;28.17;11.57;;;;;;;;;;4979725;28;20042;-60
2023/06/13 11:10:30;;;;;;;31.15;11.95;;;;;;;;;;4975145;28;20134;-60
2023/06/13 11:12:56;;;;;;;25.52;12.38;;;;;;;;;;4979347;28;20053;-60
2023/06/13 11:15:24;;;;;;;32.42;11.40;;;;;;;;;;4976320;28;20108;-61
2023/06/13 11:18:09;;;;;;;27.58;11.65;;;;;;;;;;4978176;28;20605;-58
2023/06/13 11:20:49;;;;;;;23.52;11.35;;;;;;;;;;4978853;28;20566;-64
2023/06/13 11:23:19;;;;;;;27.17;11.85;;;;;;;;;;4978498;28;20142;-60
2023/06/13 11:25:49;;;;;;;22.05;10.20;;;;;;;;;;4979071;28;20426;-58
2023/06/13 11:28:18;;;;;;;22.05;10.18;;;;;;;;;;4978870;28;20041;-59
2023/06/13 11:30:45;;;;;;;24.48;11.25;;;;;;;;;;4978781;28;20039;-59
2023/06/13 11:33:12;;;;;;;27.25;11.00;;;;;;;;;;4977346;28;20125;-58
2023/06/13 11:35:41;;;;;;;28.50;11.32;;;;;;;;;;4977429;28;20109;-65
2023/06/13 11:38:18;;;;;;;23.35;10.77;;;;;;;;;;4975123;28;20460;-62
2023/06/13 11:40:45;;;;;;;24.10;11.70;;;;;;;;;;4977860;28;20058;-62
2023/06/13 11:43:11;;;;;;;30.00;11.25;;;;;;;;;;4977685;28;20124;-59
2023/06/13 11:45:38;;;;;;;29.92;11.55;;;;;;;;;;4973943;28;20045;-63
2023/06/13 11:48:04;;;;;;;31.33;11.88;;;;;;;;;;4976349;28;20050;-60
2023/06/13 11:50:32;;;;;;;27.50;11.00;;;;;;;;;;4976071;28;20051;-61
2023/06/13 11:53:05;;;;;;;37.67;11.60;;;;;;;;;;4978307;28;20034;-61
2023/06/13 11:55:32;;;;;;;33.10;11.32;;;;;;;;;;4975073;28;20270;-63
2023/06/13 11:57:58;;;;;;;37.08;11.18;;;;;;;;;;4975340;28;20070;-61
2023/06/13 12:00:26;;;;;;;30.15;11.57;;;;;;;;;;4975062;28;20071;-60
2023/06/13 12:02:53;;;;;;;30.40;10.80;;;;;;;;;;4976696;28;20046;-62
2023/06/13 12:05:20;;;;;;;36.30;12.68;;;;;;;;;;4980366;28;20129;-60
2023/06/13 12:07:48;;;;;;;31.02;11.35;;;;;;;;;;4975873;28;20093;-61
2023/06/13 12:10:15;;;;;;;51.13;12.63;;;;;;;;;;4978390;28;20157;-60
2023/06/13 12:12:42;;;;;;;32.95;11.65;;;;;;;;;;4975738;28;20444;-62
2023/06/13 12:15:13;;;;;;;45.63;13.88;;;;;;;;;;4978785;28;20057;-60
2023/06/13 12:18:02;;;;;;;49.22;13.75;;;;;;;;;;4974498;28;20451;-60
2023/06/13 12:20:29;;;;;;;42.95;14.85;;;;;;;;;;4972950;28;20030;-61
2023/06/13 12:22:59;;;;;;;35.30;14.25;;;;;;;;;;4976080;28;20038;-64
2023/06/13 12:25:33;;;;;;;28.38;13.52;;;;;;;;;;4974662;28;20042;-59
2023/06/13 12:28:03;;;;;;;40.30;14.77;;;;;;;;;;4977478;28;20133;-62
2023/06/13 12:30:39;;;;;;;46.63;13.95;;;;;;;;;;4974688;28;20034;-60
2023/06/13 12:33:07;;;;;;;38.05;13.77;;;;;;;;;;4975563;28;20042;-61
2023/06/13 12:35:33;;;;;;;33.38;13.70;;;;;;;;;;4974363;28;20042;-63
2023/06/13 12:38:04;;;;;;;45.30;15.10;;;;;;;;;;4963144;28;20074;-62
2023/06/13 12:40:34;;;;;;;35.58;14.70;;;;;;;;;;4974038;28;20471;-61
2023/06/13 12:43:02;;;;;;;29.85;13.40;;;;;;;;;;4976352;28;20045;-62
2023/06/13 12:45:29;;;;;;;40.92;14.18;;;;;;;;;;4975026;28;20422;-63
2023/06/13 12:47:56;;;;;;;24.83;13.75;;;;;;;;;;4978161;28;20034;-61
2023/06/13 12:50:36;;;;;;;27.58;13.98;;;;;;;;;;4976767;28;20043;-63
2023/06/13 12:53:02;;;;;;;53.40;15.35;;;;;;;;;;4976718;28;20046;-63
2023/06/13 12:55:29;;;;;;;28.63;13.90;;;;;;;;;;4974764;28;20066;-62
2023/06/13 12:57:56;;;;;;;26.23;13.63;;;;;;;;;;4976447;28;20073;-61
2023/06/13 13:00:24;;;;;;;33.70;13.90;;;;;;;;;;4975908;28;20549;-63
2023/06/13 13:02:51;;;;;;;33.55;14.32;;;;;;;;;;4972972;28;20038;-62
2023/06/13 13:05:18;;;;;;;27.77;13.90;;;;;;;;;;4975532;28;20043;-62
2023/06/13 13:07:47;;;;;;;27.02;13.25;;;;;;;;;;4979331;28;21184;-60
2023/06/13 13:10:14;;;;;;;28.55;13.75;;;;;;;;;;4974528;28;20046;-58
2023/06/13 13:12:41;;;;;;;33.28;13.65;;;;;;;;;;4978140;28;20035;-61
2023/06/13 13:15:08;;;;;;;23.92;13.80;;;;;;;;;;4975896;28;20422;-63
2023/06/13 13:17:35;;;;;;;27.60;13.80;;;;;;;;;;4987748;28;20039;-61
2023/06/13 13:20:03;;;;;;;27.48;13.90;;;;;;;;;;4976637;28;20289;-63
2023/06/13 13:22:30;;;;;;;24.23;13.55;;;;;;;;;;4974341;28;20038;-63
2023/06/13 13:24:57;;;;;;;38.60;13.82;;;;;;;;;;4975688;28;20628;-62
2023/06/13 13:27:24;;;;;;;31.67;14.10;;;;;;;;;;4973198;28;20152;-62
2023/06/13 13:29:51;;;;;;;29.00;14.10;;;;;;;;;;4975618;28;20031;-61
2023/06/13 13:32:17;;;;;;;32.58;14.23;;;;;;;;;;4975669;28;20035;-61
2023/06/13 13:34:44;;;;;;;31.55;14.23;;;;;;;;;;4976242;28;20166;-62
2023/06/13 13:37:10;;;;;;;32.40;14.25;;;;;;;;;;4975954;28;20046;-64
2023/06/13 13:39:37;;;;;;;39.08;14.25;;;;;;;;;;4974937;28;20332;-64
2023/06/13 13:42:04;;;;;;;40.55;14.20;;;;;;;;;;4975185;28;20144;-64
2023/06/13 13:44:30;;;;;;;41.75;13.68;;;;;;;;;;4975158;28;20127;-65
2023/06/13 13:46:57;;;;;;;31.52;14.23;;;;;;;;;;4975444;28;20076;-62
2023/06/13 13:49:27;;;;;;;28.17;13.07;;;;;;;;;;4979007;28;20038;-61
2023/06/13 13:51:53;;;;;;;25.25;12.82;;;;;;;;;;4980552;28;20048;-61
2023/06/13 13:54:20;;;;;;;26.92;12.35;;;;;;;;;;4981564;28;20153;-63
2023/06/13 13:56:46;;;;;;;24.73;12.00;;;;;;;;;;4977395;28;20046;-63
2023/06/13 13:59:13;;;;;;;20.80;11.55;;;;;;;;;;4980913;28;20066;-64
2023/06/13 14:01:40;;;;;;;21.77;11.20;;;;;;;;;;4978278;28;20067;-62
2023/06/13 14:04:06;;;;;;;23.38;10.52;;;;;;;;;;4972814;28;20039;-62
2023/06/13 14:06:33;;;;;;;29.92;12.05;;;;;;;;;;4978123;28;20054;-64
2023/06/13 14:08:59;;;;;;;32.40;11.48;;;;;;;;;;4979146;28;20397;-61
2023/06/13 14:11:26;;;;;;;25.02;10.95;;;;;;;;;;4978604;28;20098;-64
2023/06/13 14:13:53;;;;;;;24.02;10.68;;;;;;;;;;4979810;28;20046;-63
2023/06/13 14:16:21;;;;;;;22.45;10.05;;;;;;;;;;4978646;28;20461;-62
2023/06/13 14:18:47;;;;;;;18.92;10.80;;;;;;;;;;4977521;28;20522;-62
2023/06/13 14:21:14;;;;;;;17.08;9.73;;;;;;;;;;4978367;28;20049;-64
2023/06/13 14:23:41;;;;;;;26.90;10.68;;;;;;;;;;4975999;28;20050;-63
2023/06/13 14:26:07;;;;;;;19.25;9.43;;;;;;;;;;4975019;28;20495;-63